createdAt,value
2016-07-12T00:00:34.339Z,19.04
2016-07-12T00:01:34.317Z,19.02
2016-07-12T00:02:34.303Z,19.07
2016-07-12T00:03:34.282Z,19.09
2016-07-12T00:04:34.261Z,19.02
2016-07-12T00:05:34.244Z,19.02
2016-07-12T00:06:34.225Z,19
2016-07-12T00:07:34.240Z,18.98
2016-07-12T00:08:34.898Z,18.95
2016-07-12T00:09:34.165Z,18.96
2016-07-12T00:10:34.162Z,18.89
2016-07-12T00:11:34.130Z,18.89
2016-07-12T00:12:34.113Z,18.93
2016-07-12T00:13:34.096Z,18.89
2016-07-12T00:14:34.081Z,18.92
2016-07-12T00:15:34.058Z,18.92
2016-07-12T00:16:34.038Z,18.9
2016-07-12T00:17:34.019Z,18.83
2016-07-12T00:18:33.996Z,18.84
2016-07-12T00:19:34.673Z,18.74
2016-07-12T00:20:33.956Z,18.86
2016-07-12T00:21:33.943Z,18.81
2016-07-12T00:22:33.918Z,18.84
2016-07-12T00:23:33.899Z,18.86
2016-07-12T00:24:33.883Z,18.83
2016-07-12T00:25:33.859Z,18.8
2016-07-12T00:26:33.857Z,18.73
2016-07-12T00:27:33.822Z,18.73
2016-07-12T00:28:33.804Z,18.78
2016-07-12T00:29:33.784Z,18.75
2016-07-12T00:30:33.764Z,18.73
2016-07-12T00:31:33.743Z,18.78
2016-07-12T00:32:33.728Z,18.73
2016-07-12T00:33:33.709Z,18.62
2016-07-12T00:34:33.691Z,18.6
2016-07-12T00:35:33.671Z,18.65
2016-07-12T00:36:33.648Z,18.58
2016-07-12T00:37:33.629Z,18.56
2016-07-12T00:38:33.613Z,18.62
2016-07-12T00:39:33.599Z,18.6
2016-07-12T00:40:33.570Z,18.7
2016-07-12T00:41:33.555Z,18.68
2016-07-12T00:42:33.537Z,18.65
2016-07-12T00:43:33.513Z,18.55
2016-07-12T00:44:33.497Z,18.6
2016-07-12T00:45:33.478Z,18.63
2016-07-12T00:46:33.454Z,18.62
2016-07-12T00:47:33.437Z,18.6
2016-07-12T00:48:33.420Z,18.47
2016-07-12T00:49:33.398Z,18.56
2016-07-12T00:50:33.386Z,18.55
2016-07-12T00:51:33.360Z,18.5
2016-07-12T00:52:33.342Z,18.44
2016-07-12T00:53:33.318Z,18.55
2016-07-12T00:54:33.304Z,18.47
2016-07-12T00:55:33.283Z,18.45
2016-07-12T00:56:33.262Z,18.45
2016-07-12T00:57:33.243Z,18.43
2016-07-12T00:58:33.223Z,18.45
2016-07-12T00:59:33.202Z,18.44
2016-07-12T01:00:33.181Z,18.45
2016-07-12T01:01:33.168Z,18.43
2016-07-12T01:02:33.146Z,18.4
2016-07-12T01:03:33.123Z,18.38
2016-07-12T01:04:33.111Z,18.45
2016-07-12T01:05:33.092Z,18.49
2016-07-12T01:06:33.067Z,18.47
2016-07-12T01:07:33.047Z,18.43
2016-07-12T01:08:33.029Z,18.44
2016-07-12T01:09:33.009Z,18.44
2016-07-12T01:10:32.992Z,18.55
2016-07-12T01:11:32.970Z,18.45
2016-07-12T01:12:32.953Z,18.5
2016-07-12T01:13:32.929Z,18.49
2016-07-12T01:14:32.910Z,18.45
2016-07-12T01:15:32.892Z,18.43
2016-07-12T01:16:32.870Z,18.52
2016-07-12T01:17:32.854Z,18.52
2016-07-12T01:18:32.834Z,18.49
2016-07-12T01:19:32.813Z,18.49
2016-07-12T01:20:32.795Z,18.52
2016-07-12T01:21:32.774Z,18.44
2016-07-12T01:22:32.756Z,18.56
2016-07-12T01:23:32.737Z,18.55
2016-07-12T01:24:32.715Z,18.53
2016-07-12T01:25:32.696Z,18.45
2016-07-12T01:26:32.677Z,18.5
2016-07-12T01:27:32.664Z,18.45
2016-07-12T01:28:32.648Z,18.49
2016-07-12T01:29:32.619Z,18.45
2016-07-12T01:30:32.599Z,18.5
2016-07-12T01:31:33.271Z,18.52
2016-07-12T01:32:32.560Z,18.43
2016-07-12T01:33:32.539Z,18.45
2016-07-12T01:34:32.521Z,18.45
2016-07-12T01:35:33.194Z,18.44
2016-07-12T01:36:32.483Z,18.44
2016-07-12T01:37:32.464Z,18.41
2016-07-12T01:38:32.443Z,18.45
2016-07-12T01:39:32.435Z,18.49
2016-07-12T01:40:32.410Z,18.49
2016-07-12T01:41:32.384Z,18.44
2016-07-12T01:42:32.366Z,18.5
2016-07-12T01:43:32.345Z,18.45
2016-07-12T01:44:32.324Z,18.43
2016-07-12T01:45:32.307Z,18.45
2016-07-12T01:46:32.287Z,18.41
2016-07-12T01:47:32.267Z,18.45
2016-07-12T01:48:32.948Z,18.4
2016-07-12T01:49:32.229Z,18.49
2016-07-12T01:50:32.208Z,18.44
2016-07-12T01:51:32.189Z,18.44
2016-07-12T01:52:32.168Z,18.47
2016-07-12T01:53:32.153Z,18.47
2016-07-12T01:54:32.133Z,18.49
2016-07-12T01:55:32.115Z,18.45
2016-07-12T01:56:32.092Z,18.5
2016-07-12T01:57:32.074Z,18.45
2016-07-12T01:58:32.059Z,18.41
2016-07-12T01:59:32.034Z,18.5
2016-07-12T02:00:32.018Z,18.38
2016-07-12T02:01:31.993Z,18.47
2016-07-12T02:02:31.983Z,18.44
2016-07-12T02:03:31.955Z,18.45
2016-07-12T02:04:31.938Z,18.35
2016-07-12T02:05:31.919Z,18.35
2016-07-12T02:06:31.902Z,18.38
2016-07-12T02:07:31.880Z,18.35
2016-07-12T02:08:31.869Z,18.41
2016-07-12T02:09:31.840Z,18.29
2016-07-12T02:10:32.595Z,18.38
2016-07-12T02:11:31.802Z,18.33
2016-07-12T02:12:31.781Z,18.4
2016-07-12T02:13:32.457Z,18.4
2016-07-12T02:14:31.742Z,18.35
2016-07-12T02:15:31.718Z,18.29
2016-07-12T02:16:31.702Z,18.31
2016-07-12T02:17:31.683Z,18.31
2016-07-12T02:18:31.661Z,18.35
2016-07-12T02:19:31.643Z,18.33
2016-07-12T02:20:31.622Z,18.31
2016-07-12T02:21:31.602Z,18.28
2016-07-12T02:22:31.584Z,18.35
2016-07-12T02:23:31.565Z,18.29
2016-07-12T02:24:31.544Z,18.34
2016-07-12T02:25:31.526Z,18.23
2016-07-12T02:26:31.503Z,18.33
2016-07-12T02:27:31.490Z,18.25
2016-07-12T02:28:31.467Z,18.22
2016-07-12T02:29:31.444Z,18.18
2016-07-12T02:30:31.428Z,18.22
2016-07-12T02:31:31.410Z,18.15
2016-07-12T02:32:31.388Z,18.18
2016-07-12T02:33:31.377Z,18.13
2016-07-12T02:34:31.348Z,18.16
2016-07-12T02:35:31.331Z,18.2
2016-07-12T02:36:31.308Z,18.16
2016-07-12T02:37:31.292Z,18.16
2016-07-12T02:38:31.268Z,18.13
2016-07-12T02:39:31.253Z,18.05
2016-07-12T02:40:31.232Z,18.13
2016-07-12T02:41:31.215Z,18.04
2016-07-12T02:42:31.189Z,18.08
2016-07-12T02:43:31.171Z,18
2016-07-12T02:44:31.153Z,18.01
2016-07-12T02:45:31.129Z,18.03
2016-07-12T02:46:31.113Z,18
2016-07-12T02:47:31.090Z,17.98
2016-07-12T02:48:31.074Z,17.94
2016-07-12T02:49:31.051Z,17.97
2016-07-12T02:50:31.033Z,17.97
2016-07-12T02:51:31.016Z,17.98
2016-07-12T02:52:30.994Z,18.01
2016-07-12T02:53:30.970Z,17.97
2016-07-12T02:54:30.953Z,17.98
2016-07-12T02:55:30.942Z,17.97
2016-07-12T02:56:30.920Z,18
2016-07-12T02:57:30.896Z,17.83
2016-07-12T02:58:30.879Z,17.87
2016-07-12T02:59:30.850Z,17.83
2016-07-12T03:00:30.845Z,17.87
2016-07-12T03:01:30.815Z,17.8
2016-07-12T03:02:30.795Z,17.89
2016-07-12T03:03:30.771Z,17.8
2016-07-12T03:04:30.755Z,17.82
2016-07-12T03:05:30.735Z,17.82
2016-07-12T03:06:30.714Z,17.85
2016-07-12T03:07:30.694Z,17.79
2016-07-12T03:08:30.675Z,17.78
2016-07-12T03:09:30.655Z,17.8
2016-07-12T03:10:30.638Z,17.8
2016-07-12T03:11:30.615Z,17.72
2016-07-12T03:12:30.594Z,17.74
2016-07-12T03:13:30.577Z,17.7
2016-07-12T03:14:30.557Z,17.78
2016-07-12T03:15:30.541Z,17.7
2016-07-12T03:16:30.530Z,17.76
2016-07-12T03:17:30.497Z,17.74
2016-07-12T03:18:30.478Z,17.72
2016-07-12T03:19:30.457Z,17.8
2016-07-12T03:20:30.438Z,17.72
2016-07-12T03:21:30.415Z,17.7
2016-07-12T03:22:30.394Z,17.7
2016-07-12T03:23:30.380Z,17.72
2016-07-12T03:24:30.358Z,17.7
2016-07-12T03:25:30.342Z,17.71
2016-07-12T03:26:30.320Z,17.67
2016-07-12T03:27:30.298Z,17.68
2016-07-12T03:28:30.276Z,17.68
2016-07-12T03:29:30.257Z,17.64
2016-07-12T03:30:30.236Z,17.65
2016-07-12T03:31:30.214Z,17.6
2016-07-12T03:32:30.195Z,17.6
2016-07-12T03:33:30.177Z,17.57
2016-07-12T03:34:30.153Z,17.7
2016-07-12T03:35:30.137Z,17.64
2016-07-12T03:36:30.115Z,17.7
2016-07-12T03:37:30.108Z,17.64
2016-07-12T03:38:30.078Z,17.6
2016-07-12T03:39:30.055Z,17.59
2016-07-12T03:40:30.048Z,17.56
2016-07-12T03:41:30.019Z,17.52
2016-07-12T03:42:29.994Z,17.63
2016-07-12T03:43:29.978Z,17.63
2016-07-12T03:44:29.958Z,17.59
2016-07-12T03:45:29.936Z,17.57
2016-07-12T03:46:29.912Z,17.59
2016-07-12T03:47:29.894Z,17.59
2016-07-12T03:48:29.879Z,17.56
2016-07-12T03:49:29.855Z,17.54
2016-07-12T03:50:29.837Z,17.57
2016-07-12T03:51:29.816Z,17.54
2016-07-12T03:52:29.797Z,17.59
2016-07-12T03:53:29.775Z,17.59
2016-07-12T03:54:29.755Z,17.57
2016-07-12T03:55:29.740Z,17.6
2016-07-12T03:56:29.712Z,17.64
2016-07-12T03:57:29.697Z,17.56
2016-07-12T03:58:29.676Z,17.64
2016-07-12T03:59:29.653Z,17.65
2016-07-12T04:00:29.634Z,17.63
2016-07-12T04:01:29.619Z,17.68
2016-07-12T04:02:29.597Z,17.71
2016-07-12T04:03:29.576Z,17.64
2016-07-12T04:04:29.557Z,17.67
2016-07-12T04:05:29.534Z,17.64
2016-07-12T04:06:29.512Z,17.6
2016-07-12T04:07:29.509Z,17.68
2016-07-12T04:08:29.480Z,17.7
2016-07-12T04:09:29.456Z,17.79
2016-07-12T04:10:29.436Z,17.71
2016-07-12T04:11:29.419Z,17.72
2016-07-12T04:12:29.397Z,17.76
2016-07-12T04:13:29.379Z,17.78
2016-07-12T04:14:29.358Z,17.71
2016-07-12T04:15:29.340Z,17.7
2016-07-12T04:16:29.321Z,17.79
2016-07-12T04:17:29.298Z,17.76
2016-07-12T04:18:29.281Z,17.82
2016-07-12T04:19:29.262Z,17.8
2016-07-12T04:20:29.237Z,17.82
2016-07-12T04:21:29.217Z,17.86
2016-07-12T04:22:29.201Z,17.92
2016-07-12T04:23:29.181Z,17.82
2016-07-12T04:24:29.160Z,17.86
2016-07-12T04:25:29.146Z,17.87
2016-07-12T04:26:29.129Z,17.86
2016-07-12T04:27:29.113Z,17.78
2016-07-12T04:28:29.085Z,17.87
2016-07-12T04:29:29.068Z,17.94
2016-07-12T04:30:29.043Z,17.85
2016-07-12T04:31:29.031Z,17.92
2016-07-12T04:32:29.009Z,17.89
2016-07-12T04:33:29.005Z,17.87
2016-07-12T04:34:28.968Z,17.92
2016-07-12T04:35:28.947Z,17.97
2016-07-12T04:36:28.930Z,17.94
2016-07-12T04:37:28.910Z,17.94
2016-07-12T04:38:28.892Z,17.97
2016-07-12T04:39:28.871Z,18.07
2016-07-12T04:40:28.855Z,17.95
2016-07-12T04:41:28.838Z,18
2016-07-12T04:42:28.813Z,17.94
2016-07-12T04:43:28.797Z,18.08
2016-07-12T04:44:28.777Z,18.05
2016-07-12T04:45:28.768Z,18.1
2016-07-12T04:46:28.738Z,18.15
2016-07-12T04:47:28.717Z,18.2
2016-07-12T04:48:28.696Z,18.05
2016-07-12T04:49:28.683Z,18.13
2016-07-12T04:50:28.661Z,18.15
2016-07-12T04:51:28.644Z,18.15
2016-07-12T04:52:28.622Z,18.16
2016-07-12T04:53:28.604Z,18.08
2016-07-12T04:54:28.587Z,18.11
2016-07-12T04:55:28.570Z,18.11
2016-07-12T04:56:28.547Z,18.13
2016-07-12T04:57:28.542Z,18.19
2016-07-12T04:58:28.515Z,18.16
2016-07-12T04:59:28.488Z,18.1
2016-07-12T05:00:28.473Z,18.16
2016-07-12T05:01:28.454Z,18.13
2016-07-12T05:02:28.439Z,18.16
2016-07-12T05:03:28.415Z,18.16
2016-07-12T05:04:28.395Z,18.15
2016-07-12T05:05:28.378Z,18.15
2016-07-12T05:06:28.360Z,18.08
2016-07-12T05:07:28.339Z,18.1
2016-07-12T05:08:28.321Z,18.15
2016-07-12T05:09:28.302Z,18.11
2016-07-12T05:10:28.285Z,18.16
2016-07-12T05:11:28.276Z,18.11
2016-07-12T05:12:28.245Z,18.22
2016-07-12T05:13:28.227Z,18.23
2016-07-12T05:14:28.208Z,18.23
2016-07-12T05:15:28.191Z,18.26
2016-07-12T05:16:28.871Z,18.28
2016-07-12T05:17:28.155Z,18.29
2016-07-12T05:18:28.132Z,18.26
2016-07-12T05:19:28.117Z,18.34
2016-07-12T05:20:28.094Z,18.28
2016-07-12T05:21:28.081Z,18.25
2016-07-12T05:22:28.060Z,18.23
2016-07-12T05:23:28.039Z,18.2
2016-07-12T05:24:28.019Z,18.2
2016-07-12T05:25:28.007Z,18.23
2016-07-12T05:26:27.989Z,18.28
2016-07-12T05:27:27.964Z,18.28
2016-07-12T05:28:27.949Z,18.26
2016-07-12T05:29:27.928Z,18.37
2016-07-12T05:30:27.908Z,18.37
2016-07-12T05:31:27.895Z,18.35
2016-07-12T05:32:27.875Z,18.4
2016-07-12T05:33:27.851Z,18.33
2016-07-12T05:34:27.837Z,18.44
2016-07-12T05:35:27.818Z,18.41
2016-07-12T05:36:27.796Z,18.41
2016-07-12T05:37:27.781Z,18.49
2016-07-12T05:38:27.763Z,18.45
2016-07-12T05:39:27.742Z,18.44
2016-07-12T05:40:27.730Z,18.45
2016-07-12T05:41:27.706Z,18.41
2016-07-12T05:42:27.688Z,18.58
2016-07-12T05:43:27.668Z,18.58
2016-07-12T05:44:27.651Z,18.63
2016-07-12T05:45:27.640Z,18.65
2016-07-12T05:46:27.614Z,18.71
2016-07-12T05:47:27.598Z,18.92
2016-07-12T05:48:27.580Z,18.93
2016-07-12T05:49:27.558Z,18.92
2016-07-12T05:50:27.555Z,19.08
2016-07-12T05:51:27.527Z,19.16
2016-07-12T05:52:27.506Z,19.16
2016-07-12T05:53:27.492Z,19.3
2016-07-12T05:54:27.473Z,19.33
2016-07-12T05:55:27.457Z,19.37
2016-07-12T05:56:27.440Z,19.4
2016-07-12T05:57:27.421Z,19.36
2016-07-12T05:58:27.411Z,19.52
2016-07-12T05:59:27.384Z,19.59
2016-07-12T06:00:27.369Z,19.71
2016-07-12T06:01:27.348Z,19.67
2016-07-12T06:02:27.332Z,19.76
2016-07-12T06:03:27.324Z,19.91
2016-07-12T06:04:27.300Z,19.99
2016-07-12T06:05:27.282Z,20.06
2016-07-12T06:06:27.267Z,20.07
2016-07-12T06:07:27.247Z,20.07
2016-07-12T06:08:27.232Z,20.19
2016-07-12T06:09:27.217Z,20.19
2016-07-12T06:10:27.201Z,20.22
2016-07-12T06:11:27.180Z,20.16
2016-07-12T06:12:27.173Z,20.19
2016-07-12T06:13:27.150Z,20.18
2016-07-12T06:14:27.132Z,20.14
2016-07-12T06:15:27.116Z,20.19
2016-07-12T06:16:27.105Z,20.19
2016-07-12T06:17:27.085Z,20.21
2016-07-12T06:18:27.070Z,20.28
2016-07-12T06:19:27.055Z,20.25
2016-07-12T06:20:27.044Z,20.25
2016-07-12T06:21:27.023Z,20.32
2016-07-12T06:22:27.003Z,20.26
2016-07-12T06:23:27.006Z,20.25
2016-07-12T06:24:26.977Z,20.24
2016-07-12T06:25:26.959Z,20.29
2016-07-12T06:26:26.948Z,20.4
2016-07-12T06:27:26.929Z,20.4
2016-07-12T06:28:26.913Z,20.44
2016-07-12T06:29:26.905Z,20.44
2016-07-12T06:30:26.889Z,20.39
2016-07-12T06:31:26.870Z,20.41
2016-07-12T06:32:26.857Z,20.43
2016-07-12T06:33:26.844Z,20.4
2016-07-12T06:34:26.826Z,20.48
2016-07-12T06:35:27.525Z,20.55
2016-07-12T06:36:26.802Z,20.6
2016-07-12T06:37:26.786Z,20.65
2016-07-12T06:38:26.768Z,20.7
2016-07-12T06:39:26.753Z,20.7
2016-07-12T06:40:26.743Z,20.81
2016-07-12T06:41:26.727Z,20.75
2016-07-12T06:42:26.711Z,20.92
2016-07-12T06:43:26.702Z,20.93
2016-07-12T06:44:26.686Z,20.87
2016-07-12T06:45:26.673Z,20.95
2016-07-12T06:46:26.655Z,21.02
2016-07-12T06:47:26.646Z,21.05
2016-07-12T06:48:26.636Z,21.15
2016-07-12T06:49:26.618Z,21.24
2016-07-12T06:50:26.605Z,21.29
2016-07-12T06:51:26.592Z,21.24
2016-07-12T06:52:26.582Z,21.29
2016-07-12T06:53:26.565Z,21.43
2016-07-12T06:54:26.555Z,21.5
2016-07-12T06:55:26.541Z,21.55
2016-07-12T06:56:26.529Z,21.62
2016-07-12T06:57:27.486Z,21.61
2016-07-12T06:58:26.505Z,21.79
2016-07-12T06:59:26.495Z,21.76
2016-07-12T07:00:26.480Z,21.83
2016-07-12T07:01:26.467Z,21.99
2016-07-12T07:02:26.454Z,22.07
2016-07-12T07:03:26.442Z,22.07
2016-07-12T07:04:26.426Z,22.15
2016-07-12T07:05:26.419Z,22.15
2016-07-12T07:06:26.409Z,22.23
2016-07-12T07:07:26.396Z,22.3
2016-07-12T07:08:26.383Z,22.28
2016-07-12T07:09:26.375Z,22.23
2016-07-12T07:10:26.358Z,22.22
2016-07-12T07:11:26.348Z,22.2
2016-07-12T07:12:26.338Z,22.25
2016-07-12T07:13:26.325Z,22.25
2016-07-12T07:14:26.315Z,22.29
2016-07-12T07:15:26.298Z,22.3
2016-07-12T07:16:26.289Z,22.29
2016-07-12T07:17:26.278Z,22.29
2016-07-12T07:18:26.264Z,22.29
2016-07-12T07:19:26.254Z,22.28
2016-07-12T07:20:26.243Z,22.3
2016-07-12T07:21:26.234Z,22.26
2016-07-12T07:22:26.222Z,22.35
2016-07-12T07:23:26.205Z,22.36
2016-07-12T07:24:26.196Z,22.45
2016-07-12T07:25:26.198Z,22.51
2016-07-12T07:26:26.173Z,22.59
2016-07-12T07:27:26.161Z,22.62
2016-07-12T07:28:26.151Z,22.68
2016-07-12T07:29:26.136Z,22.69
2016-07-12T07:30:26.124Z,22.76
2016-07-12T07:31:26.113Z,22.93
2016-07-12T07:32:26.101Z,22.87
2016-07-12T07:33:26.088Z,22.81
2016-07-12T07:34:26.077Z,22.66
2016-07-12T07:35:26.076Z,22.7
2016-07-12T07:36:26.051Z,22.7
2016-07-12T07:37:26.052Z,22.72
2016-07-12T07:38:26.031Z,22.83
2016-07-12T07:39:26.018Z,22.83
2016-07-12T07:40:26.009Z,22.85
2016-07-12T07:41:25.998Z,22.96
2016-07-12T07:42:25.983Z,22.98
2016-07-12T07:43:25.970Z,23.1
2016-07-12T07:44:25.960Z,23.17
2016-07-12T07:45:25.952Z,23.17
2016-07-12T07:46:25.937Z,23.32
2016-07-12T07:47:25.926Z,23.46
2016-07-12T07:48:25.911Z,23.39
2016-07-12T07:49:25.902Z,23.36
2016-07-12T07:50:25.893Z,23.47
2016-07-12T07:51:25.881Z,23.56
2016-07-12T07:52:25.868Z,23.69
2016-07-12T07:53:25.857Z,23.84
2016-07-12T07:54:25.859Z,23.84
2016-07-12T07:55:25.839Z,23.93
2016-07-12T07:56:25.827Z,24.03
2016-07-12T07:57:25.823Z,24.03
2016-07-12T07:58:25.809Z,24.03
2016-07-12T07:59:25.798Z,24.01
2016-07-12T08:00:25.791Z,23.95
2016-07-12T08:01:25.789Z,24.21
2016-07-12T08:02:25.786Z,24.23
2016-07-12T08:03:25.761Z,24.26
2016-07-12T08:04:25.753Z,24.36
2016-07-12T08:05:25.805Z,24.39
2016-07-12T08:06:25.737Z,24.45
2016-07-12T08:07:25.724Z,24.48
2016-07-12T08:08:25.718Z,24.5
2016-07-12T08:09:25.705Z,24.48
2016-07-12T08:10:25.698Z,24.38
2016-07-12T08:11:25.692Z,24.5
2016-07-12T08:12:25.680Z,24.69
2016-07-12T08:13:25.678Z,24.76
2016-07-12T08:14:25.661Z,24.69
2016-07-12T08:15:25.657Z,24.73
2016-07-12T08:16:25.647Z,24.77
2016-07-12T08:17:25.635Z,24.66
2016-07-12T08:18:26.502Z,24.78
2016-07-12T08:19:25.616Z,24.86
2016-07-12T08:20:25.737Z,24.99
2016-07-12T08:21:26.440Z,25.1
2016-07-12T08:22:25.594Z,25.21
2016-07-12T08:23:25.586Z,25.4
2016-07-12T08:24:25.575Z,25.43
2016-07-12T08:25:25.567Z,25.66
2016-07-12T08:26:25.559Z,25.77
2016-07-12T08:27:25.555Z,25.78
2016-07-12T08:28:25.547Z,25.77
2016-07-12T08:29:25.538Z,25.66
2016-07-12T08:30:25.530Z,25.5
2016-07-12T08:31:25.522Z,25.55
2016-07-12T08:32:25.552Z,25.54
2016-07-12T08:33:25.507Z,25.51
2016-07-12T08:34:25.499Z,25.59
2016-07-12T08:35:25.496Z,25.5
2016-07-12T08:36:25.489Z,25.41
2016-07-12T08:37:25.477Z,25.22
2016-07-12T08:38:25.472Z,25.13
2016-07-12T08:39:25.463Z,25.03
2016-07-12T08:40:25.452Z,25.01
2016-07-12T08:41:25.449Z,24.92
2016-07-12T08:42:25.436Z,24.86
2016-07-12T08:43:25.484Z,24.91
2016-07-12T08:44:25.415Z,24.96
2016-07-12T08:45:25.411Z,24.96
2016-07-12T08:46:25.403Z,25.1
2016-07-12T08:47:25.523Z,25.07
2016-07-12T08:48:25.387Z,25.21
2016-07-12T08:49:25.618Z,25.18
2016-07-12T08:50:25.408Z,25.23
2016-07-12T08:51:25.358Z,25.36
2016-07-12T08:52:25.349Z,25.51
2016-07-12T08:53:26.054Z,25.6
2016-07-12T08:54:25.333Z,25.73
2016-07-12T08:55:26.445Z,25.75
2016-07-12T08:56:25.324Z,25.85
2016-07-12T08:57:25.317Z,26.06
2016-07-12T08:58:25.307Z,26.29
2016-07-12T08:59:25.302Z,26.28
2016-07-12T09:00:25.294Z,26.33
2016-07-12T09:01:25.289Z,26.28
2016-07-12T09:02:25.285Z,26.36
2016-07-12T09:03:25.273Z,26.29
2016-07-12T09:04:25.265Z,26.15
2016-07-12T09:05:25.314Z,26.06
2016-07-12T09:06:25.252Z,26
2016-07-12T09:07:25.256Z,25.95
2016-07-12T09:08:25.241Z,25.87
2016-07-12T09:09:25.234Z,25.87
2016-07-12T09:10:25.225Z,25.95
2016-07-12T09:11:25.287Z,26.09
2016-07-12T09:12:25.282Z,26.07
2016-07-12T09:13:25.254Z,26.1
2016-07-12T09:14:25.201Z,26.26
2016-07-12T09:15:25.296Z,26.45
2016-07-12T09:16:25.183Z,26.47
2016-07-12T09:17:25.180Z,26.51
2016-07-12T09:18:25.172Z,26.62
2016-07-12T09:19:25.164Z,26.62
2016-07-12T09:20:25.161Z,26.59
2016-07-12T09:21:25.153Z,26.52
2016-07-12T09:22:25.149Z,26.59
2016-07-12T09:23:25.143Z,26.59
2016-07-12T09:24:25.137Z,26.68
2016-07-12T09:25:25.132Z,26.77
2016-07-12T09:26:25.125Z,26.7
2016-07-12T09:27:25.123Z,26.81
2016-07-12T09:28:25.115Z,26.85
2016-07-12T09:29:25.114Z,26.78
2016-07-12T09:30:25.108Z,26.71
2016-07-12T09:31:25.105Z,26.83
2016-07-12T09:32:25.097Z,26.83
2016-07-12T09:33:25.092Z,26.9
2016-07-12T09:34:25.093Z,27.07
2016-07-12T09:35:25.084Z,27.2
2016-07-12T09:36:25.096Z,27.22
2016-07-12T09:37:25.076Z,27.27
2016-07-12T09:38:25.069Z,27.32
2016-07-12T09:39:25.064Z,27.42
2016-07-12T09:40:25.066Z,27.45
2016-07-12T09:41:25.056Z,27.64
2016-07-12T09:42:25.055Z,27.74
2016-07-12T09:43:25.049Z,27.71
2016-07-12T09:44:25.042Z,27.6
2016-07-12T09:45:25.041Z,27.7
2016-07-12T09:46:25.037Z,27.83
2016-07-12T09:47:25.031Z,28.02
2016-07-12T09:48:25.029Z,28.04
2016-07-12T09:49:25.025Z,28.1
2016-07-12T09:50:25.035Z,28.07
2016-07-12T09:51:25.019Z,28.14
2016-07-12T09:52:25.016Z,28.22
2016-07-12T09:53:25.704Z,28.1
2016-07-12T09:54:25.007Z,28.2
2016-07-12T09:55:25.006Z,28.26
2016-07-12T09:56:25.000Z,28.23
2016-07-12T09:57:25.000Z,28.17
2016-07-12T09:58:25.688Z,28.12
2016-07-12T09:59:24.994Z,28.26
2016-07-12T10:00:25.063Z,28.35
2016-07-12T10:01:26.703Z,28.32
2016-07-12T10:02:24.983Z,28.42
2016-07-12T10:03:24.981Z,28.26
2016-07-12T10:04:24.974Z,28.29
2016-07-12T10:05:24.972Z,28.32
2016-07-12T10:06:24.972Z,28.08
2016-07-12T10:07:24.963Z,27.86
2016-07-12T10:08:24.960Z,27.85
2016-07-12T10:09:24.956Z,27.82
2016-07-12T10:10:24.953Z,27.85
2016-07-12T10:11:24.949Z,27.9
2016-07-12T10:12:24.943Z,27.96
2016-07-12T10:13:24.947Z,28.23
2016-07-12T10:14:24.932Z,28.32
2016-07-12T10:15:24.932Z,28.37
2016-07-12T10:16:24.923Z,28.33
2016-07-12T10:17:24.923Z,28.12
2016-07-12T10:18:24.918Z,27.98
2016-07-12T10:19:24.912Z,27.86
2016-07-12T10:20:24.907Z,27.85
2016-07-12T10:21:24.902Z,27.78
2016-07-12T10:22:24.900Z,27.86
2016-07-12T10:23:24.892Z,27.93
2016-07-12T10:24:24.886Z,28.17
2016-07-12T10:25:24.880Z,28.2
2016-07-12T10:26:24.876Z,28.33
2016-07-12T10:27:24.871Z,28.3
2016-07-12T10:28:24.867Z,28.22
2016-07-12T10:29:24.868Z,28.17
2016-07-12T10:30:24.855Z,28.19
2016-07-12T10:31:24.863Z,28.05
2016-07-12T10:32:24.850Z,28.07
2016-07-12T10:33:24.838Z,28.02
2016-07-12T10:35:07.520Z,27.86
2016-07-12T10:35:24.839Z,27.86
2016-07-12T10:36:24.827Z,27.85
2016-07-12T10:37:24.824Z,27.96
2016-07-12T10:38:25.506Z,28
2016-07-12T10:39:24.812Z,28.05
2016-07-12T10:40:24.798Z,28.15
2016-07-12T10:41:24.793Z,28
2016-07-12T10:42:24.794Z,27.92
2016-07-12T10:43:24.782Z,27.92
2016-07-12T10:44:24.781Z,28.02
2016-07-12T10:45:24.770Z,28.11
2016-07-12T10:46:24.760Z,28.25
2016-07-12T10:47:24.755Z,28.42
2016-07-12T10:48:24.751Z,28.38
2016-07-12T10:49:24.745Z,28.57
2016-07-12T10:50:24.738Z,28.66
2016-07-12T10:51:24.737Z,28.64
2016-07-12T10:52:24.729Z,28.89
2016-07-12T10:53:24.726Z,29.1
2016-07-12T10:54:24.723Z,29.29
2016-07-12T10:55:24.719Z,29.49
2016-07-12T10:56:24.717Z,29.65
2016-07-12T10:57:24.715Z,29.68
2016-07-12T10:58:24.711Z,29.65
2016-07-12T10:59:24.708Z,29.82
2016-07-12T11:00:24.709Z,29.91
2016-07-12T11:01:24.698Z,29.94
2016-07-12T11:02:24.698Z,29.98
2016-07-12T11:03:24.697Z,30
2016-07-12T11:04:24.698Z,30.13
2016-07-12T11:05:24.695Z,30.4
2016-07-12T11:06:24.688Z,30.43
2016-07-12T11:07:24.685Z,30.3
2016-07-12T11:08:24.687Z,30.15
2016-07-12T11:09:24.682Z,30.27
2016-07-12T11:10:24.683Z,30.43
2016-07-12T11:11:24.684Z,30.47
2016-07-12T11:12:24.678Z,30.37
2016-07-12T11:13:24.678Z,30.51
2016-07-12T11:14:24.680Z,30.5
2016-07-12T11:15:24.678Z,30.4
2016-07-12T11:16:24.675Z,30.5
2016-07-12T11:17:24.675Z,30.35
2016-07-12T11:18:24.675Z,30.43
2016-07-12T11:19:24.668Z,30.5
2016-07-12T11:20:24.674Z,30.47
2016-07-12T11:21:24.667Z,30.46
2016-07-12T11:22:24.662Z,30.63
2016-07-12T11:23:24.663Z,30.84
2016-07-12T11:24:24.660Z,30.96
2016-07-12T11:25:24.659Z,31.1
2016-07-12T11:26:24.664Z,31.18
2016-07-12T11:27:24.654Z,31.21
2016-07-12T11:28:24.653Z,31.12
2016-07-12T11:29:24.650Z,31
2016-07-12T11:30:24.675Z,31.03
2016-07-12T11:31:24.651Z,30.94
2016-07-12T11:32:24.649Z,30.77
2016-07-12T11:33:24.653Z,30.97
2016-07-12T11:34:24.648Z,30.97
2016-07-12T11:35:24.646Z,30.77
2016-07-12T11:36:24.651Z,30.81
2016-07-12T11:37:24.642Z,30.78
2016-07-12T11:38:24.642Z,30.63
2016-07-12T11:39:24.655Z,30.48
2016-07-12T11:40:24.649Z,30.4
2016-07-12T11:41:24.639Z,30.4
2016-07-12T11:42:24.640Z,30.19
2016-07-12T11:43:24.639Z,30.02
2016-07-12T11:44:24.638Z,30.02
2016-07-12T11:45:24.632Z,29.82
2016-07-12T11:46:24.636Z,29.75
2016-07-12T11:47:24.627Z,29.69
2016-07-12T11:48:24.632Z,29.68
2016-07-12T11:49:25.314Z,29.6
2016-07-12T11:50:24.622Z,29.6
2016-07-12T11:51:24.628Z,29.61
2016-07-12T11:52:24.616Z,29.66
2016-07-12T11:53:24.606Z,29.76
2016-07-12T11:54:24.606Z,29.72
2016-07-12T11:55:24.602Z,29.56
2016-07-12T11:56:24.596Z,29.49
2016-07-12T11:57:24.599Z,29.5
2016-07-12T11:58:24.591Z,29.49
2016-07-12T11:59:24.593Z,29.44
2016-07-12T12:00:24.580Z,29.36
2016-07-12T12:01:24.582Z,29.24
2016-07-12T12:02:24.582Z,29.27
2016-07-12T12:03:24.564Z,29.19
2016-07-12T12:04:24.560Z,29.16
2016-07-12T12:05:24.556Z,29.04
2016-07-12T12:06:24.549Z,28.97
2016-07-12T12:07:24.543Z,28.93
2016-07-12T12:08:24.843Z,28.91
2016-07-12T12:09:24.540Z,28.88
2016-07-12T12:10:24.523Z,28.76
2016-07-12T12:11:24.536Z,28.67
2016-07-12T12:12:24.511Z,28.72
2016-07-12T12:13:24.506Z,28.59
2016-07-12T12:14:24.495Z,28.56
2016-07-12T12:15:24.494Z,28.74
2016-07-12T12:16:24.484Z,28.89
2016-07-12T12:17:24.482Z,28.89
2016-07-12T12:18:24.471Z,28.75
2016-07-12T12:19:24.465Z,28.59
2016-07-12T12:20:24.456Z,28.44
2016-07-12T12:21:24.454Z,28.33
2016-07-12T12:22:24.450Z,28.19
2016-07-12T12:23:24.436Z,28.2
2016-07-12T12:24:24.427Z,28.15
2016-07-12T12:25:24.423Z,28.19
2016-07-12T12:26:24.415Z,28.08
2016-07-12T12:27:24.410Z,27.85
2016-07-12T12:28:24.403Z,27.83
2016-07-12T12:29:24.392Z,27.83
2016-07-12T12:30:24.387Z,27.85
2016-07-12T12:31:24.377Z,27.86
2016-07-12T12:32:24.371Z,27.83
2016-07-12T12:33:24.361Z,27.8
2016-07-12T12:34:24.355Z,27.73
2016-07-12T12:35:24.347Z,27.77
2016-07-12T12:36:24.342Z,27.83
2016-07-12T12:37:24.331Z,27.95
2016-07-12T12:38:24.321Z,28.02
2016-07-12T12:39:24.312Z,28.08
2016-07-12T12:40:24.303Z,28.15
2016-07-12T12:41:24.989Z,28.23
2016-07-12T12:42:24.286Z,28.15
2016-07-12T12:43:24.284Z,28.1
2016-07-12T12:44:24.273Z,28.08
2016-07-12T12:45:24.268Z,28.22
2016-07-12T12:46:24.260Z,28.27
2016-07-12T12:47:24.251Z,28.38
2016-07-12T12:48:24.242Z,28.44
2016-07-12T12:49:24.236Z,28.44
2016-07-12T12:50:24.230Z,28.56
2016-07-12T12:51:24.223Z,28.57
2016-07-12T12:52:24.211Z,28.48
2016-07-12T12:53:24.205Z,28.32
2016-07-12T12:54:24.199Z,28.23
2016-07-12T12:55:24.189Z,28.22
2016-07-12T12:56:24.185Z,28.38